sensor_id;sensor_type;location;lat;lon;timestamp;pressure;altitude;pressure_sealevel;temperature;humidity
45129;BME280;35512;56.312;101.728;2023-01-30T00:02:22;95671.13;;;-7.68;86.73
45129;BME280;35512;56.312;101.728;2023-01-30T00:04:52;95691.31;;;-7.69;86.41
45129;BME280;35512;56.312;101.728;2023-01-30T00:07:21;95689.75;;;-7.70;86.58
45129;BME280;35512;56.312;101.728;2023-01-30T00:09:50;95696.81;;;-7.70;86.63
45129;BME280;35512;56.312;101.728;2023-01-30T00:12:19;95690.53;;;-7.74;86.32
45129;BME280;35512;56.312;101.728;2023-01-30T00:14:48;95690.28;;;-7.83;86.72
45129;BME280;35512;56.312;101.728;2023-01-30T00:17:17;95703.66;;;-7.85;86.37
45129;BME280;35512;56.312;101.728;2023-01-30T00:19:45;95699.44;;;-7.86;86.83
45129;BME280;35512;56.312;101.728;2023-01-30T00:22:14;95698.66;;;-7.86;86.73
45129;BME280;35512;56.312;101.728;2023-01-30T00:24:44;95702.34;;;-7.87;86.34
45129;BME280;35512;56.312;101.728;2023-01-30T00:27:13;95704.94;;;-7.92;86.58
45129;BME280;35512;56.312;101.728;2023-01-30T00:29:42;95709.94;;;-7.96;86.22
45129;BME280;35512;56.312;101.728;2023-01-30T00:32:24;95709.13;;;-8.02;86.07
45129;BME280;35512;56.312;101.728;2023-01-30T00:34:57;95717.25;;;-8.03;86.18
45129;BME280;35512;56.312;101.728;2023-01-30T00:37:30;95708.09;;;-8.11;86.15
45129;BME280;35512;56.312;101.728;2023-01-30T00:39:59;95703.09;;;-8.18;86.41
45129;BME280;35512;56.312;101.728;2023-01-30T00:42:30;95720.91;;;-8.15;86.24
45129;BME280;35512;56.312;101.728;2023-01-30T00:45:17;95724.03;;;-8.28;86.14
45129;BME280;35512;56.312;101.728;2023-01-30T00:48:05;95734.75;;;-8.35;86.11
45129;BME280;35512;56.312;101.728;2023-01-30T00:50:34;95733.44;;;-8.37;85.99
45129;BME280;35512;56.312;101.728;2023-01-30T00:53:13;95735.00;;;-8.41;86.01
45129;BME280;35512;56.312;101.728;2023-01-30T00:55:43;95737.34;;;-8.40;86.18
45129;BME280;35512;56.312;101.728;2023-01-30T00:58:14;95738.13;;;-8.44;85.96
45129;BME280;35512;56.312;101.728;2023-01-30T01:00:44;95748.13;;;-8.46;86.09
45129;BME280;35512;56.312;101.728;2023-01-30T01:03:14;95752.53;;;-8.52;86.10
45129;BME280;35512;56.312;101.728;2023-01-30T01:05:43;95756.97;;;-8.58;86.10
45129;BME280;35512;56.312;101.728;2023-01-30T01:08:14;95754.31;;;-8.63;85.80
45129;BME280;35512;56.312;101.728;2023-01-30T01:10:43;95759.81;;;-8.64;85.88
45129;BME280;35512;56.312;101.728;2023-01-30T01:13:12;95765.81;;;-8.69;85.74
45129;BME280;35512;56.312;101.728;2023-01-30T01:15:41;95775.25;;;-8.63;85.79
45129;BME280;35512;56.312;101.728;2023-01-30T01:18:10;95778.94;;;-8.59;86.05
45129;BME280;35512;56.312;101.728;2023-01-30T01:20:39;95777.13;;;-8.58;85.70
45129;BME280;35512;56.312;101.728;2023-01-30T01:23:09;95780.00;;;-8.60;85.75
45129;BME280;35512;56.312;101.728;2023-01-30T01:25:38;95781.81;;;-8.60;85.58
45129;BME280;35512;56.312;101.728;2023-01-30T01:28:07;95781.56;;;-8.59;85.99
45129;BME280;35512;56.312;101.728;2023-01-30T01:30:37;95791.00;;;-8.58;85.71
45129;BME280;35512;56.312;101.728;2023-01-30T01:33:09;95789.69;;;-8.55;86.03
45129;BME280;35512;56.312;101.728;2023-01-30T01:35:41;95800.72;;;-8.53;85.83
45129;BME280;35512;56.312;101.728;2023-01-30T01:38:10;95802.78;;;-8.55;85.89
45129;BME280;35512;56.312;101.728;2023-01-30T01:40:44;95797.25;;;-8.59;85.98
45129;BME280;35512;56.312;101.728;2023-01-30T01:43:35;95807.00;;;-8.54;86.06
45129;BME280;35512;56.312;101.728;2023-01-30T01:46:20;95811.19;;;-8.48;86.12
45129;BME280;35512;56.312;101.728;2023-01-30T01:48:56;95810.94;;;-8.52;85.80
45129;BME280;35512;56.312;101.728;2023-01-30T01:51:43;95799.94;;;-8.48;86.15
45129;BME280;35512;56.312;101.728;2023-01-30T01:54:22;95811.97;;;-8.53;85.81
45129;BME280;35512;56.312;101.728;2023-01-30T01:56:53;95805.66;;;-8.57;86.04
45129;BME280;35512;56.312;101.728;2023-01-30T01:59:30;95816.06;;;-8.67;85.62
45129;BME280;35512;56.312;101.728;2023-01-30T02:02:08;95825.00;;;-8.63;85.83
45129;BME280;35512;56.312;101.728;2023-01-30T02:04:41;95824.19;;;-8.69;85.77
45129;BME280;35512;56.312;101.728;2023-01-30T02:07:38;95824.16;;;-8.79;85.86
45129;BME280;35512;56.312;101.728;2023-01-30T02:10:12;95823.09;;;-8.83;85.81
45129;BME280;35512;56.312;101.728;2023-01-30T02:12:41;95831.41;;;-8.91;85.87
45129;BME280;35512;56.312;101.728;2023-01-30T02:15:11;95825.88;;;-8.95;85.89
45129;BME280;35512;56.312;101.728;2023-01-30T02:17:41;95831.16;;;-8.90;85.93
45129;BME280;35512;56.312;101.728;2023-01-30T02:20:37;95838.56;;;-8.76;86.20
45129;BME280;35512;56.312;101.728;2023-01-30T02:32:05;95859.78;;;-6.14;87.24
45129;BME280;35512;56.312;101.728;2023-01-30T02:35:03;95867.66;;;-5.19;86.06
45129;BME280;35512;56.312;101.728;2023-01-30T02:40:23;95864.50;;;-5.21;85.45
45129;BME280;35512;56.312;101.728;2023-01-30T02:48:46;95878.59;;;-6.98;84.51
45129;BME280;35512;56.312;101.728;2023-01-30T02:51:30;95876.19;;;-7.51;85.10
45129;BME280;35512;56.312;101.728;2023-01-30T02:54:03;95860.34;;;-7.97;85.56
45129;BME280;35512;56.312;101.728;2023-01-30T02:56:47;95892.28;;;-8.10;85.58
45129;BME280;35512;56.312;101.728;2023-01-30T03:02:17;95889.84;;;-7.28;87.36
45129;BME280;35512;56.312;101.728;2023-01-30T03:07:57;95899.91;;;-4.15;88.23
45129;BME280;35512;56.312;101.728;2023-01-30T03:10:58;95903.28;;;-2.70;86.38
45129;BME280;35512;56.312;101.728;2023-01-30T03:16:33;95900.59;;;-1.26;83.84
45129;BME280;35512;56.312;101.728;2023-01-30T03:19:05;95916.00;;;-1.28;81.41
45129;BME280;35512;56.312;101.728;2023-01-30T03:21:39;95914.72;;;-2.42;81.38
45129;BME280;35512;56.312;101.728;2023-01-30T03:24:08;95914.06;;;-3.38;82.58
45129;BME280;35512;56.312;101.728;2023-01-30T03:26:48;95919.06;;;-4.04;83.90
45129;BME280;35512;56.312;101.728;2023-01-30T03:29:20;95910.88;;;-4.56;84.46
45129;BME280;35512;56.312;101.728;2023-01-30T03:31:50;95911.13;;;-4.87;84.97
45129;BME280;35512;56.312;101.728;2023-01-30T03:34:19;95918.59;;;-4.99;85.27
45129;BME280;35512;56.312;101.728;2023-01-30T03:36:48;95919.66;;;-5.00;85.92
45129;BME280;35512;56.312;101.728;2023-01-30T03:39:18;95915.50;;;-5.12;85.99
45129;BME280;35512;56.312;101.728;2023-01-30T03:41:47;95920.59;;;-5.26;86.22
45129;BME280;35512;56.312;101.728;2023-01-30T03:44:17;95921.91;;;-5.23;86.50
45129;BME280;35512;56.312;101.728;2023-01-30T03:46:45;95921.94;;;-5.28;86.61
45129;BME280;35512;56.312;101.728;2023-01-30T03:49:14;95926.50;;;-5.44;86.34
45129;BME280;35512;56.312;101.728;2023-01-30T03:51:43;95923.69;;;-5.58;86.63
45129;BME280;35512;56.312;101.728;2023-01-30T03:54:13;95929.84;;;-5.88;85.91
45129;BME280;35512;56.312;101.728;2023-01-30T03:56:43;95937.56;;;-6.13;85.84
45129;BME280;35512;56.312;101.728;2023-01-30T03:59:12;95931.28;;;-6.22;86.22
45129;BME280;35512;56.312;101.728;2023-01-30T04:01:48;95931.06;;;-6.25;86.01
45129;BME280;35512;56.312;101.728;2023-01-30T04:04:18;95924.25;;;-6.42;85.63
45129;BME280;35512;56.312;101.728;2023-01-30T04:06:48;95926.06;;;-6.32;86.66
45129;BME280;35512;56.312;101.728;2023-01-30T04:09:17;95932.88;;;-6.21;86.94
45129;BME280;35512;56.312;101.728;2023-01-30T04:11:49;95932.53;;;-5.99;86.72
45129;BME280;35512;56.312;101.728;2023-01-30T04:14:19;95922.94;;;-5.74;87.27
45129;BME280;35512;56.312;101.728;2023-01-30T04:17:20;95917.78;;;-5.34;87.14
45129;BME280;35512;56.312;101.728;2023-01-30T04:20:12;95929.69;;;-4.38;87.73
45129;BME280;35512;56.312;101.728;2023-01-30T04:22:47;95912.53;;;-3.87;86.96
45129;BME280;35512;56.312;101.728;2023-01-30T04:25:17;95928.03;;;-4.05;85.95
45129;BME280;35512;56.312;101.728;2023-01-30T04:27:47;95924.91;;;-4.07;85.30
45129;BME280;35512;56.312;101.728;2023-01-30T04:30:20;95930.84;;;-3.72;85.91
45129;BME280;35512;56.312;101.728;2023-01-30T04:32:54;95923.91;;;-3.87;85.70
45129;BME280;35512;56.312;101.728;2023-01-30T04:35:23;95932.78;;;-4.02;85.49
45129;BME280;35512;56.312;101.728;2023-01-30T04:37:52;95929.84;;;-4.00;85.37
45129;BME280;35512;56.312;101.728;2023-01-30T04:40:21;95933.59;;;-3.82;85.93
45129;BME280;35512;56.312;101.728;2023-01-30T04:42:50;95928.25;;;-3.53;86.44
45129;BME280;35512;56.312;101.728;2023-01-30T04:45:46;95925.97;;;-3.84;85.27
45129;BME280;35512;56.312;101.728;2023-01-30T04:48:17;95910.59;;;-4.25;84.48
45129;BME280;35512;56.312;101.728;2023-01-30T04:50:48;95931.28;;;-4.37;84.58
45129;BME280;35512;56.312;101.728;2023-01-30T04:53:18;95929.59;;;-4.57;84.99
45129;BME280;35512;56.312;101.728;2023-01-30T04:55:48;95931.25;;;-4.67;85.06
45129;BME280;35512;56.312;101.728;2023-01-30T04:58:17;95927.47;;;-4.90;85.02
45129;BME280;35512;56.312;101.728;2023-01-30T05:00:49;95927.50;;;-4.95;85.19
45129;BME280;35512;56.312;101.728;2023-01-30T05:03:19;95925.09;;;-4.57;86.04
45129;BME280;35512;56.312;101.728;2023-01-30T05:05:48;95934.22;;;-4.44;85.94
45129;BME280;35512;56.312;101.728;2023-01-30T05:08:17;95945.50;;;-4.38;85.48
45129;BME280;35512;56.312;101.728;2023-01-30T05:10:45;95939.03;;;-4.51;84.65
45129;BME280;35512;56.312;101.728;2023-01-30T05:13:14;95939.69;;;-4.65;84.77
45129;BME280;35512;56.312;101.728;2023-01-30T05:15:44;95941.44;;;-4.55;85.59
45129;BME280;35512;56.312;101.728;2023-01-30T05:18:13;95938.41;;;-4.43;85.39
45129;BME280;35512;56.312;101.728;2023-01-30T05:20:41;95944.94;;;-4.65;85.36
45129;BME280;35512;56.312;101.728;2023-01-30T05:23:10;95944.13;;;-4.95;84.58
45129;BME280;35512;56.312;101.728;2023-01-30T05:25:39;95940.66;;;-5.35;84.77
45129;BME280;35512;56.312;101.728;2023-01-30T05:28:08;95942.91;;;-5.63;84.95
45129;BME280;35512;56.312;101.728;2023-01-30T05:30:37;95942.44;;;-5.75;85.28
45129;BME280;35512;56.312;101.728;2023-01-30T05:33:05;95934.56;;;-5.80;85.66
45129;BME280;35512;56.312;101.728;2023-01-30T05:35:34;95941.13;;;-5.78;85.69
45129;BME280;35512;56.312;101.728;2023-01-30T05:38:03;95947.94;;;-5.71;85.98
45129;BME280;35512;56.312;101.728;2023-01-30T05:40:32;95945.28;;;-5.66;85.45
45129;BME280;35512;56.312;101.728;2023-01-30T05:43:01;95933.34;;;-5.48;85.96
45129;BME280;35512;56.312;101.728;2023-01-30T05:45:30;95950.66;;;-4.52;87.22
45129;BME280;35512;56.312;101.728;2023-01-30T05:47:58;95947.31;;;-3.37;87.18
45129;BME280;35512;56.312;101.728;2023-01-30T05:50:29;95936.47;;;-2.45;87.11
45129;BME280;35512;56.312;101.728;2023-01-30T05:52:58;95940.66;;;-1.70;85.21
45129;BME280;35512;56.312;101.728;2023-01-30T05:55:28;95949.31;;;-1.13;84.12
45129;BME280;35512;56.312;101.728;2023-01-30T05:57:56;95944.56;;;-1.39;83.31
45129;BME280;35512;56.312;101.728;2023-01-30T06:00:25;95946.13;;;-2.08;82.67
45129;BME280;35512;56.312;101.728;2023-01-30T06:02:55;95947.31;;;-2.47;83.11
45129;BME280;35512;56.312;101.728;2023-01-30T06:05:24;95955.38;;;-3.28;82.27
45129;BME280;35512;56.312;101.728;2023-01-30T06:07:53;95952.13;;;-3.63;84.17
45129;BME280;35512;56.312;101.728;2023-01-30T06:10:22;95956.00;;;-3.80;84.37
45129;BME280;35512;56.312;101.728;2023-01-30T06:12:51;95956.16;;;-3.71;84.78
45129;BME280;35512;56.312;101.728;2023-01-30T06:15:20;95955.75;;;-3.59;84.83
45129;BME280;35512;56.312;101.728;2023-01-30T06:17:48;95951.66;;;-3.46;85.28
45129;BME280;35512;56.312;101.728;2023-01-30T06:20:17;95958.47;;;-3.21;85.43
45129;BME280;35512;56.312;101.728;2023-01-30T06:22:47;95963.09;;;-3.32;84.80
45129;BME280;35512;56.312;101.728;2023-01-30T06:25:16;95969.28;;;-3.42;84.43
45129;BME280;35512;56.312;101.728;2023-01-30T06:27:46;95966.09;;;-3.63;83.86
45129;BME280;35512;56.312;101.728;2023-01-30T06:30:15;95953.88;;;-4.02;83.84
45129;BME280;35512;56.312;101.728;2023-01-30T06:32:44;95956.31;;;-4.35;83.56
45129;BME280;35512;56.312;101.728;2023-01-30T06:35:13;95970.28;;;-4.39;84.39
45129;BME280;35512;56.312;101.728;2023-01-30T06:37:43;95958.97;;;-4.40;84.62
45129;BME280;35512;56.312;101.728;2023-01-30T06:40:12;95966.22;;;-4.56;84.27
45129;BME280;35512;56.312;101.728;2023-01-30T06:42:45;95951.00;;;-4.99;83.84
45129;BME280;35512;56.312;101.728;2023-01-30T06:45:16;95955.84;;;-5.21;84.11
45129;BME280;35512;56.312;101.728;2023-01-30T06:47:47;95960.06;;;-5.20;84.18
45129;BME280;35512;56.312;101.728;2023-01-30T06:50:18;95946.28;;;-5.47;84.34
45129;BME280;35512;56.312;101.728;2023-01-30T06:52:48;95966.00;;;-5.49;84.29
45129;BME280;35512;56.312;101.728;2023-01-30T06:55:21;95969.53;;;-5.74;83.90
45129;BME280;35512;56.312;101.728;2023-01-30T06:58:03;95954.84;;;-5.96;84.55
45129;BME280;35512;56.312;101.728;2023-01-30T07:00:34;95972.13;;;-5.69;84.69
45129;BME280;35512;56.312;101.728;2023-01-30T07:03:04;95966.81;;;-5.54;84.97
45129;BME280;35512;56.312;101.728;2023-01-30T07:05:33;95970.75;;;-5.56;84.74
45129;BME280;35512;56.312;101.728;2023-01-30T07:08:02;95967.16;;;-5.81;83.89
45129;BME280;35512;56.312;101.728;2023-01-30T07:10:31;95967.53;;;-5.98;84.07
45129;BME280;35512;56.312;101.728;2023-01-30T07:13:00;95962.81;;;-6.17;84.06
45129;BME280;35512;56.312;101.728;2023-01-30T07:15:29;95972.31;;;-6.31;84.01
45129;BME280;35512;56.312;101.728;2023-01-30T07:17:59;95970.22;;;-6.60;84.08
45129;BME280;35512;56.312;101.728;2023-01-30T07:20:28;95965.22;;;-6.82;84.28
45129;BME280;35512;56.312;101.728;2023-01-30T07:22:59;95973.63;;;-6.96;84.61
45129;BME280;35512;56.312;101.728;2023-01-30T07:25:28;95977.03;;;-7.00;84.27
45129;BME280;35512;56.312;101.728;2023-01-30T07:28:01;95988.81;;;-7.13;84.44
45129;BME280;35512;56.312;101.728;2023-01-30T07:30:32;95985.13;;;-7.27;84.17
45129;BME280;35512;56.312;101.728;2023-01-30T07:33:04;95985.56;;;-7.46;84.17
45129;BME280;35512;56.312;101.728;2023-01-30T07:35:35;95988.75;;;-7.44;84.36
45129;BME280;35512;56.312;101.728;2023-01-30T07:38:05;95988.50;;;-7.32;84.67
45129;BME280;35512;56.312;101.728;2023-01-30T07:40:34;95984.59;;;-7.35;84.19
45129;BME280;35512;56.312;101.728;2023-01-30T07:43:11;96001.53;;;-7.53;83.84
45129;BME280;35512;56.312;101.728;2023-01-30T07:45:43;95995.47;;;-7.64;84.15
45129;BME280;35512;56.312;101.728;2023-01-30T07:48:21;96001.94;;;-7.82;83.76
45129;BME280;35512;56.312;101.728;2023-01-30T07:50:54;96008.72;;;-7.96;84.10
45129;BME280;35512;56.312;101.728;2023-01-30T07:53:26;96006.59;;;-7.94;84.27
45129;BME280;35512;56.312;101.728;2023-01-30T07:55:55;96008.50;;;-7.84;84.57
45129;BME280;35512;56.312;101.728;2023-01-30T07:58:24;95999.88;;;-7.74;84.67
45129;BME280;35512;56.312;101.728;2023-01-30T08:00:54;96020.13;;;-7.65;84.66
45129;BME280;35512;56.312;101.728;2023-01-30T08:03:24;96020.91;;;-7.64;84.72
45129;BME280;35512;56.312;101.728;2023-01-30T08:05:53;96018.00;;;-7.68;84.36
45129;BME280;35512;56.312;101.728;2023-01-30T08:08:22;96026.94;;;-7.69;84.29
45129;BME280;35512;56.312;101.728;2023-01-30T08:10:51;96019.03;;;-7.74;84.23
45129;BME280;35512;56.312;101.728;2023-01-30T08:13:20;96023.69;;;-7.86;83.98
45129;BME280;35512;56.312;101.728;2023-01-30T08:15:49;96028.06;;;-8.02;84.14
45129;BME280;35512;56.312;101.728;2023-01-30T08:18:18;96033.00;;;-8.11;83.91
45129;BME280;35512;56.312;101.728;2023-01-30T08:20:47;96025.88;;;-8.16;84.17
45129;BME280;35512;56.312;101.728;2023-01-30T08:23:16;96031.31;;;-8.22;83.84
45129;BME280;35512;56.312;101.728;2023-01-30T08:25:45;96028.66;;;-8.33;83.81
45129;BME280;35512;56.312;101.728;2023-01-30T08:28:14;96032.22;;;-8.44;83.78
45129;BME280;35512;56.312;101.728;2023-01-30T08:30:43;96034.22;;;-8.56;83.58
45129;BME280;35512;56.312;101.728;2023-01-30T08:33:12;96038.59;;;-8.67;83.86
45129;BME280;35512;56.312;101.728;2023-01-30T08:35:41;96048.75;;;-8.76;84.12
45129;BME280;35512;56.312;101.728;2023-01-30T08:38:10;96052.06;;;-8.86;83.29
45129;BME280;35512;56.312;101.728;2023-01-30T08:40:38;96055.66;;;-8.92;83.84
45129;BME280;35512;56.312;101.728;2023-01-30T08:43:07;96050.38;;;-8.97;83.76
45129;BME280;35512;56.312;101.728;2023-01-30T08:45:37;96050.25;;;-9.07;83.68
45129;BME280;35512;56.312;101.728;2023-01-30T08:48:06;96064.31;;;-9.13;83.67
45129;BME280;35512;56.312;101.728;2023-01-30T08:50:35;96066.09;;;-9.19;83.70
45129;BME280;35512;56.312;101.728;2023-01-30T08:53:06;96063.41;;;-9.24;83.97
45129;BME280;35512;56.312;101.728;2023-01-30T08:55:36;96056.00;;;-9.32;83.66
45129;BME280;35512;56.312;101.728;2023-01-30T08:58:05;96068.03;;;-9.31;83.77
45129;BME280;35512;56.312;101.728;2023-01-30T09:00:35;96063.25;;;-9.40;83.41
45129;BME280;35512;56.312;101.728;2023-01-30T09:03:05;96064.16;;;-9.51;83.81
45129;BME280;35512;56.312;101.728;2023-01-30T09:05:33;96067.44;;;-9.61;83.11
45129;BME280;35512;56.312;101.728;2023-01-30T09:08:02;96067.06;;;-9.70;83.11
45129;BME280;35512;56.312;101.728;2023-01-30T09:10:31;96080.53;;;-9.78;83.41
45129;BME280;35512;56.312;101.728;2023-01-30T09:13:00;96074.84;;;-9.92;83.28
45129;BME280;35512;56.312;101.728;2023-01-30T09:15:30;96069.47;;;-10.02;83.06
45129;BME280;35512;56.312;101.728;2023-01-30T09:17:59;96081.75;;;-10.03;83.47
45129;BME280;35512;56.312;101.728;2023-01-30T09:20:29;96076.44;;;-10.08;83.57
45129;BME280;35512;56.312;101.728;2023-01-30T09:22:58;96083.91;;;-10.16;83.41
45129;BME280;35512;56.312;101.728;2023-01-30T09:25:27;96083.59;;;-10.20;83.77
45129;BME280;35512;56.312;101.728;2023-01-30T09:27:56;96080.88;;;-10.25;83.79
45129;BME280;35512;56.312;101.728;2023-01-30T09:30:25;96095.06;;;-10.21;83.47
45129;BME280;35512;56.312;101.728;2023-01-30T09:32:54;96095.06;;;-10.21;83.59
45129;BME280;35512;56.312;101.728;2023-01-30T09:35:23;96101.78;;;-10.25;83.57
45129;BME280;35512;56.312;101.728;2023-01-30T09:37:52;96106.31;;;-10.21;84.01
45129;BME280;35512;56.312;101.728;2023-01-30T09:40:31;96113.56;;;-10.23;83.32
45129;BME280;35512;56.312;101.728;2023-01-30T09:46:17;96124.75;;;-10.27;83.86
45129;BME280;35512;56.312;101.728;2023-01-30T09:49:28;96127.59;;;-10.29;83.75
45129;BME280;35512;56.312;101.728;2023-01-30T09:54:54;96125.63;;;-10.39;83.44
45129;BME280;35512;56.312;101.728;2023-01-30T09:57:26;96139.13;;;-10.42;83.62
45129;BME280;35512;56.312;101.728;2023-01-30T10:00:24;96135.50;;;-10.41;83.75
45129;BME280;35512;56.312;101.728;2023-01-30T10:03:05;96145.72;;;-10.39;83.69
45129;BME280;35512;56.312;101.728;2023-01-30T10:14:40;96151.19;;;-10.41;83.35
45129;BME280;35512;56.312;101.728;2023-01-30T10:17:35;96162.41;;;-10.40;83.49
45129;BME280;35512;56.312;101.728;2023-01-30T10:25:41;96168.09;;;-10.43;83.64
45129;BME280;35512;56.312;101.728;2023-01-30T10:28:24;96174.34;;;-10.44;83.39
45129;BME280;35512;56.312;101.728;2023-01-30T10:31:09;96177.50;;;-10.42;83.77
45129;BME280;35512;56.312;101.728;2023-01-30T10:33:43;96177.75;;;-10.44;83.39
45129;BME280;35512;56.312;101.728;2023-01-30T10:36:24;96170.41;;;-10.47;83.59
45129;BME280;35512;56.312;101.728;2023-01-30T10:38:58;96175.03;;;-10.49;83.28
45129;BME280;35512;56.312;101.728;2023-01-30T10:41:51;96179.72;;;-10.51;83.36
45129;BME280;35512;56.312;101.728;2023-01-30T10:44:22;96187.56;;;-10.51;83.13
45129;BME280;35512;56.312;101.728;2023-01-30T10:49:49;96185.28;;;-10.59;83.52
45129;BME280;35512;56.312;101.728;2023-01-30T10:52:45;96188.13;;;-10.61;83.36
45129;BME280;35512;56.312;101.728;2023-01-30T10:55:34;96198.56;;;-10.61;83.80
45129;BME280;35512;56.312;101.728;2023-01-30T11:04:36;96212.19;;;-10.59;83.34
45129;BME280;35512;56.312;101.728;2023-01-30T11:07:07;96211.38;;;-10.59;83.42
45129;BME280;35512;56.312;101.728;2023-01-30T11:09:45;96211.84;;;-10.62;83.38
45129;BME280;35512;56.312;101.728;2023-01-30T11:12:14;96214.47;;;-10.62;83.31
45129;BME280;35512;56.312;101.728;2023-01-30T11:17:46;96210.63;;;-10.72;83.60
45129;BME280;35512;56.312;101.728;2023-01-30T11:20:23;96233.69;;;-10.68;83.07
45129;BME280;35512;56.312;101.728;2023-01-30T11:23:26;96237.53;;;-10.71;83.13
45129;BME280;35512;56.312;101.728;2023-01-30T11:26:00;96230.63;;;-10.77;83.10
45129;BME280;35512;56.312;101.728;2023-01-30T11:28:40;96231.09;;;-10.80;83.32
45129;BME280;35512;56.312;101.728;2023-01-30T11:31:20;96196.13;;;-11.08;83.15
45129;BME280;35512;56.312;101.728;2023-01-30T11:34:16;96225.66;;;-10.91;83.37
45129;BME280;35512;56.312;101.728;2023-01-30T11:36:46;96243.72;;;-10.89;83.54
45129;BME280;35512;56.312;101.728;2023-01-30T11:44:36;96241.53;;;-10.92;83.14
45129;BME280;35512;56.312;101.728;2023-01-30T11:47:18;96241.00;;;-10.94;83.08
45129;BME280;35512;56.312;101.728;2023-01-30T11:49:49;96251.06;;;-10.98;83.04
45129;BME280;35512;56.312;101.728;2023-01-30T11:52:43;96247.91;;;-11.00;83.07
45129;BME280;35512;56.312;101.728;2023-01-30T11:55:15;96254.94;;;-11.00;83.03
45129;BME280;35512;56.312;101.728;2023-01-30T11:57:51;96260.16;;;-11.00;83.40
45129;BME280;35512;56.312;101.728;2023-01-30T12:00:37;96257.53;;;-11.00;83.28
45129;BME280;35512;56.312;101.728;2023-01-30T12:03:13;96264.25;;;-11.05;82.79
45129;BME280;35512;56.312;101.728;2023-01-30T12:05:46;96257.34;;;-11.11;83.03
45129;BME280;35512;56.312;101.728;2023-01-30T12:08:22;96260.72;;;-11.10;83.07
45129;BME280;35512;56.312;101.728;2023-01-30T12:14:44;96267.88;;;-11.17;82.89
45129;BME280;35512;56.312;101.728;2023-01-30T12:17:37;96285.13;;;-11.16;83.28
45129;BME280;35512;56.312;101.728;2023-01-30T12:20:20;96264.38;;;-11.23;83.02
45129;BME280;35512;56.312;101.728;2023-01-30T12:25:50;96288.06;;;-11.13;83.34
45129;BME280;35512;56.312;101.728;2023-01-30T12:28:45;96283.53;;;-11.17;82.99
45129;BME280;35512;56.312;101.728;2023-01-30T12:31:23;96296.88;;;-11.14;82.79
45129;BME280;35512;56.312;101.728;2023-01-30T12:33:53;96294.28;;;-11.14;82.64
45129;BME280;35512;56.312;101.728;2023-01-30T12:36:57;96299.50;;;-11.14;82.91
45129;BME280;35512;56.312;101.728;2023-01-30T12:39:47;96310.38;;;-11.17;83.00
45129;BME280;35512;56.312;101.728;2023-01-30T12:50:58;96327.97;;;-11.12;82.82
45129;BME280;35512;56.312;101.728;2023-01-30T12:53:43;96330.78;;;-11.14;82.82
45129;BME280;35512;56.312;101.728;2023-01-30T13:05:18;96336.22;;;-11.15;82.57
45129;BME280;35512;56.312;101.728;2023-01-30T13:08:10;96346.88;;;-11.17;82.64
45129;BME280;35512;56.312;101.728;2023-01-30T13:19:22;96358.91;;;-11.16;82.95
45129;BME280;35512;56.312;101.728;2023-01-30T13:25:41;96377.41;;;-11.17;82.88
45129;BME280;35512;56.312;101.728;2023-01-30T13:28:20;96378.06;;;-11.22;82.70
45129;BME280;35512;56.312;101.728;2023-01-30T13:30:54;96372.94;;;-11.29;82.69
45129;BME280;35512;56.312;101.728;2023-01-30T13:33:34;96383.16;;;-11.27;82.23
45129;BME280;35512;56.312;101.728;2023-01-30T13:39:30;96396.16;;;-11.39;82.32
45129;BME280;35512;56.312;101.728;2023-01-30T13:42:06;96400.00;;;-11.42;82.38
45129;BME280;35512;56.312;101.728;2023-01-30T13:44:42;96402.84;;;-11.43;82.15
45129;BME280;35512;56.312;101.728;2023-01-30T13:47:41;96418.94;;;-11.46;82.37
45129;BME280;35512;56.312;101.728;2023-01-30T13:50:20;96410.75;;;-11.50;82.55
45129;BME280;35512;56.312;101.728;2023-01-30T13:53:10;96405.94;;;-11.65;82.42
45129;BME280;35512;56.312;101.728;2023-01-30T13:56:01;96421.97;;;-11.49;82.20
45129;BME280;35512;56.312;101.728;2023-01-30T13:59:21;96432.38;;;-11.49;82.22
45129;BME280;35512;56.312;101.728;2023-01-30T14:04:42;96444.03;;;-11.64;81.73
45129;BME280;35512;56.312;101.728;2023-01-30T14:07:42;96445.09;;;-11.72;81.89
45129;BME280;35512;56.312;101.728;2023-01-30T14:10:15;96454.59;;;-11.77;81.43
45129;BME280;35512;56.312;101.728;2023-01-30T14:12:52;96450.47;;;-11.85;81.46
45129;BME280;35512;56.312;101.728;2023-01-30T14:15:26;96467.53;;;-11.89;81.74
45129;BME280;35512;56.312;101.728;2023-01-30T14:18:05;96471.38;;;-11.92;81.39
45129;BME280;35512;56.312;101.728;2023-01-30T14:20:39;96466.66;;;-11.95;81.88
45129;BME280;35512;56.312;101.728;2023-01-30T14:23:32;96466.09;;;-11.97;81.88
45129;BME280;35512;56.312;101.728;2023-01-30T14:26:02;96467.53;;;-12.01;81.67
45129;BME280;35512;56.312;101.728;2023-01-30T14:31:46;96485.09;;;-11.96;81.82
45129;BME280;35512;56.312;101.728;2023-01-30T14:34:44;96489.28;;;-11.95;81.78
45129;BME280;35512;56.312;101.728;2023-01-30T14:37:45;96488.25;;;-11.94;82.01
45129;BME280;35512;56.312;101.728;2023-01-30T14:57:24;96511.88;;;-12.08;81.61
45129;BME280;35512;56.312;101.728;2023-01-30T15:00:14;96520.63;;;-12.02;81.86
45129;BME280;35512;56.312;101.728;2023-01-30T15:02:52;96526.16;;;-11.98;81.84
45129;BME280;35512;56.312;101.728;2023-01-30T15:05:30;96539.91;;;-11.91;82.29
45129;BME280;35512;56.312;101.728;2023-01-30T15:08:07;96536.59;;;-11.80;81.96
45129;BME280;35512;56.312;101.728;2023-01-30T15:16:30;96552.44;;;-11.81;81.83
45129;BME280;35512;56.312;101.728;2023-01-30T15:19:31;96565.06;;;-11.85;82.12
45129;BME280;35512;56.312;101.728;2023-01-30T15:30:38;96590.94;;;-12.02;82.00
45129;BME280;35512;56.312;101.728;2023-01-30T15:33:21;96577.38;;;-12.11;81.39
45129;BME280;35512;56.312;101.728;2023-01-30T15:35:59;96582.63;;;-12.17;81.36
45129;BME280;35512;56.312;101.728;2023-01-30T15:38:32;96594.91;;;-12.25;81.49